sensor_id;sensor_type;location;lat;lon;timestamp;temperature;humidity
16116;DHT22;8162;47.104;15.432;2024-02-04T00:01:38;3.90;78.80
16116;DHT22;8162;47.104;15.432;2024-02-04T00:04:39;3.90;78.60
16116;DHT22;8162;47.104;15.432;2024-02-04T00:07:40;3.70;79.10
16116;DHT22;8162;47.104;15.432;2024-02-04T00:10:40;3.70;79.20
16116;DHT22;8162;47.104;15.432;2024-02-04T00:13:41;3.70;79.30
16116;DHT22;8162;47.104;15.432;2024-02-04T00:16:42;3.70;79.40
16116;DHT22;8162;47.104;15.432;2024-02-04T00:19:43;3.70;79.00
16116;DHT22;8162;47.104;15.432;2024-02-04T00:22:43;3.70;78.70
16116;DHT22;8162;47.104;15.432;2024-02-04T00:25:44;3.70;79.30
16116;DHT22;8162;47.104;15.432;2024-02-04T00:28:45;3.70;80.00
16116;DHT22;8162;47.104;15.432;2024-02-04T00:31:45;3.70;79.90
16116;DHT22;8162;47.104;15.432;2024-02-04T00:34:46;3.70;79.40
16116;DHT22;8162;47.104;15.432;2024-02-04T00:37:47;3.70;79.70
16116;DHT22;8162;47.104;15.432;2024-02-04T00:40:47;3.70;79.70
16116;DHT22;8162;47.104;15.432;2024-02-04T00:43:48;3.70;79.50
16116;DHT22;8162;47.104;15.432;2024-02-04T00:46:49;3.70;79.70
16116;DHT22;8162;47.104;15.432;2024-02-04T00:49:50;3.70;79.50
16116;DHT22;8162;47.104;15.432;2024-02-04T00:52:51;3.70;79.40
16116;DHT22;8162;47.104;15.432;2024-02-04T00:55:53;3.60;79.10
16116;DHT22;8162;47.104;15.432;2024-02-04T00:58:54;3.60;79.60
16116;DHT22;8162;47.104;15.432;2024-02-04T01:01:55;3.50;80.00
16116;DHT22;8162;47.104;15.432;2024-02-04T01:04:56;3.50;79.70
16116;DHT22;8162;47.104;15.432;2024-02-04T01:07:57;3.50;79.60
16116;DHT22;8162;47.104;15.432;2024-02-04T01:10:57;3.60;79.50
16116;DHT22;8162;47.104;15.432;2024-02-04T01:13:58;3.50;80.30
16116;DHT22;8162;47.104;15.432;2024-02-04T01:16:59;3.50;79.70
16116;DHT22;8162;47.104;15.432;2024-02-04T01:19:59;3.40;80.00
16116;DHT22;8162;47.104;15.432;2024-02-04T01:23:00;3.40;80.20
16116;DHT22;8162;47.104;15.432;2024-02-04T01:26:01;3.40;80.20
16116;DHT22;8162;47.104;15.432;2024-02-04T01:29:02;3.40;80.10
16116;DHT22;8162;47.104;15.432;2024-02-04T01:32:02;3.40;80.00
16116;DHT22;8162;47.104;15.432;2024-02-04T01:35:03;3.40;80.20
16116;DHT22;8162;47.104;15.432;2024-02-04T01:38:04;3.40;80.60
16116;DHT22;8162;47.104;15.432;2024-02-04T01:41:05;3.50;80.60
16116;DHT22;8162;47.104;15.432;2024-02-04T01:44:06;3.50;80.40
16116;DHT22;8162;47.104;15.432;2024-02-04T01:47:06;3.50;80.10
16116;DHT22;8162;47.104;15.432;2024-02-04T01:50:08;3.50;80.40
16116;DHT22;8162;47.104;15.432;2024-02-04T01:53:10;3.60;81.10
16116;DHT22;8162;47.104;15.432;2024-02-04T01:56:13;3.60;81.20
16116;DHT22;8162;47.104;15.432;2024-02-04T01:59:13;3.60;81.60
16116;DHT22;8162;47.104;15.432;2024-02-04T02:02:14;3.70;81.50
16116;DHT22;8162;47.104;15.432;2024-02-04T02:05:15;3.80;81.10
16116;DHT22;8162;47.104;15.432;2024-02-04T02:08:16;3.90;81.10
16116;DHT22;8162;47.104;15.432;2024-02-04T02:14:47;3.90;80.90
16116;DHT22;8162;47.104;15.432;2024-02-04T02:17:58;3.90;80.80
16116;DHT22;8162;47.104;15.432;2024-02-04T02:21:23;3.70;81.80
16116;DHT22;8162;47.104;15.432;2024-02-04T02:27:35;3.80;80.70
16116;DHT22;8162;47.104;15.432;2024-02-04T02:30:45;3.70;81.10
16116;DHT22;8162;47.104;15.432;2024-02-04T02:33:46;3.70;81.10
16116;DHT22;8162;47.104;15.432;2024-02-04T02:36:59;3.70;81.10
16116;DHT22;8162;47.104;15.432;2024-02-04T02:40:33;3.80;81.10
16116;DHT22;8162;47.104;15.432;2024-02-04T02:43:32;3.90;80.90
16116;DHT22;8162;47.104;15.432;2024-02-04T02:46:34;3.80;80.90
16116;DHT22;8162;47.104;15.432;2024-02-04T02:49:36;3.80;80.90
16116;DHT22;8162;47.104;15.432;2024-02-04T02:52:37;3.80;80.80
16116;DHT22;8162;47.104;15.432;2024-02-04T02:55:38;3.80;81.00
16116;DHT22;8162;47.104;15.432;2024-02-04T02:58:38;3.80;81.10
16116;DHT22;8162;47.104;15.432;2024-02-04T03:01:39;3.80;81.50
16116;DHT22;8162;47.104;15.432;2024-02-04T03:04:40;3.80;81.50
16116;DHT22;8162;47.104;15.432;2024-02-04T03:07:41;3.80;81.60
16116;DHT22;8162;47.104;15.432;2024-02-04T03:10:42;3.50;81.50
16116;DHT22;8162;47.104;15.432;2024-02-04T03:13:42;3.50;82.00
16116;DHT22;8162;47.104;15.432;2024-02-04T03:16:44;3.50;82.00
16116;DHT22;8162;47.104;15.432;2024-02-04T03:19:45;3.50;81.60
16116;DHT22;8162;47.104;15.432;2024-02-04T03:22:48;3.50;81.60
16116;DHT22;8162;47.104;15.432;2024-02-04T03:25:48;3.50;81.20
16116;DHT22;8162;47.104;15.432;2024-02-04T03:28:49;3.50;81.40
16116;DHT22;8162;47.104;15.432;2024-02-04T03:31:50;3.50;81.20
16116;DHT22;8162;47.104;15.432;2024-02-04T03:34:50;3.50;81.30
16116;DHT22;8162;47.104;15.432;2024-02-04T03:37:51;3.40;81.30
16116;DHT22;8162;47.104;15.432;2024-02-04T03:40:52;3.30;81.90
16116;DHT22;8162;47.104;15.432;2024-02-04T03:43:52;3.40;82.00
16116;DHT22;8162;47.104;15.432;2024-02-04T03:46:55;3.40;82.10
16116;DHT22;8162;47.104;15.432;2024-02-04T03:49:56;3.40;83.00
16116;DHT22;8162;47.104;15.432;2024-02-04T03:52:56;3.50;82.90
16116;DHT22;8162;47.104;15.432;2024-02-04T03:55:57;3.50;82.30
16116;DHT22;8162;47.104;15.432;2024-02-04T03:58:58;3.50;82.30
16116;DHT22;8162;47.104;15.432;2024-02-04T04:01:59;3.50;82.10
16116;DHT22;8162;47.104;15.432;2024-02-04T04:04:59;3.50;81.80
16116;DHT22;8162;47.104;15.432;2024-02-04T04:08:00;3.50;81.60
16116;DHT22;8162;47.104;15.432;2024-02-04T04:11:01;3.40;81.80
16116;DHT22;8162;47.104;15.432;2024-02-04T04:14:02;3.40;82.00
16116;DHT22;8162;47.104;15.432;2024-02-04T04:17:03;3.40;81.70
16116;DHT22;8162;47.104;15.432;2024-02-04T04:20:06;3.30;81.80
16116;DHT22;8162;47.104;15.432;2024-02-04T04:23:07;3.30;81.90
16116;DHT22;8162;47.104;15.432;2024-02-04T04:26:08;3.30;81.50
16116;DHT22;8162;47.104;15.432;2024-02-04T04:29:09;3.20;81.80
16116;DHT22;8162;47.104;15.432;2024-02-04T04:32:09;3.10;81.60
16116;DHT22;8162;47.104;15.432;2024-02-04T04:35:10;3.10;81.70
16116;DHT22;8162;47.104;15.432;2024-02-04T04:38:11;3.10;81.60
16116;DHT22;8162;47.104;15.432;2024-02-04T04:41:11;3.10;81.50
16116;DHT22;8162;47.104;15.432;2024-02-04T04:44:12;3.10;81.40
16116;DHT22;8162;47.104;15.432;2024-02-04T04:47:15;3.10;82.10
16116;DHT22;8162;47.104;15.432;2024-02-04T04:50:16;3.10;82.20
16116;DHT22;8162;47.104;15.432;2024-02-04T04:53:16;3.10;82.70
16116;DHT22;8162;47.104;15.432;2024-02-04T04:56:17;3.10;82.90
16116;DHT22;8162;47.104;15.432;2024-02-04T04:59:18;3.10;83.20
16116;DHT22;8162;47.104;15.432;2024-02-04T05:02:18;3.10;82.90
16116;DHT22;8162;47.104;15.432;2024-02-04T05:05:19;3.00;83.20
16116;DHT22;8162;47.104;15.432;2024-02-04T05:08:20;3.00;83.30
16116;DHT22;8162;47.104;15.432;2024-02-04T05:11:20;2.90;83.60
16116;DHT22;8162;47.104;15.432;2024-02-04T05:14:21;3.00;83.70
16116;DHT22;8162;47.104;15.432;2024-02-04T05:17:22;3.00;83.70
16116;DHT22;8162;47.104;15.432;2024-02-04T05:20:22;3.00;83.10
16116;DHT22;8162;47.104;15.432;2024-02-04T05:23:23;3.00;83.20
16116;DHT22;8162;47.104;15.432;2024-02-04T05:26:24;2.90;83.10
16116;DHT22;8162;47.104;15.432;2024-02-04T05:29:24;2.90;83.20
16116;DHT22;8162;47.104;15.432;2024-02-04T05:32:25;2.90;83.10
16116;DHT22;8162;47.104;15.432;2024-02-04T05:35:26;2.80;83.20
16116;DHT22;8162;47.104;15.432;2024-02-04T05:38:27;2.80;82.90
16116;DHT22;8162;47.104;15.432;2024-02-04T05:41:27;2.80;82.50
16116;DHT22;8162;47.104;15.432;2024-02-04T05:44:28;2.80;82.60
16116;DHT22;8162;47.104;15.432;2024-02-04T05:47:29;2.70;83.10
16116;DHT22;8162;47.104;15.432;2024-02-04T05:50:29;2.70;83.10
16116;DHT22;8162;47.104;15.432;2024-02-04T05:53:30;2.80;83.00
16116;DHT22;8162;47.104;15.432;2024-02-04T05:56:31;2.80;82.90
16116;DHT22;8162;47.104;15.432;2024-02-04T05:59:32;2.80;82.80
16116;DHT22;8162;47.104;15.432;2024-02-04T06:02:32;2.80;83.10
16116;DHT22;8162;47.104;15.432;2024-02-04T06:05:33;2.70;83.90
16116;DHT22;8162;47.104;15.432;2024-02-04T06:08:34;2.80;83.80
16116;DHT22;8162;47.104;15.432;2024-02-04T06:11:35;2.70;83.50
16116;DHT22;8162;47.104;15.432;2024-02-04T06:14:35;2.70;83.40
16116;DHT22;8162;47.104;15.432;2024-02-04T06:17:40;2.80;83.00
16116;DHT22;8162;47.104;15.432;2024-02-04T06:20:41;2.70;83.00
16116;DHT22;8162;47.104;15.432;2024-02-04T06:23:41;2.70;82.80
16116;DHT22;8162;47.104;15.432;2024-02-04T06:26:42;2.70;82.80
16116;DHT22;8162;47.104;15.432;2024-02-04T06:29:43;2.50;83.50
16116;DHT22;8162;47.104;15.432;2024-02-04T06:32:43;2.60;82.80
16116;DHT22;8162;47.104;15.432;2024-02-04T06:35:44;2.60;82.90
16116;DHT22;8162;47.104;15.432;2024-02-04T06:38:45;2.70;82.60
16116;DHT22;8162;47.104;15.432;2024-02-04T06:41:45;2.60;82.70
16116;DHT22;8162;47.104;15.432;2024-02-04T06:44:46;2.60;82.80
16116;DHT22;8162;47.104;15.432;2024-02-04T06:47:47;2.70;82.70
16116;DHT22;8162;47.104;15.432;2024-02-04T06:50:47;2.50;82.90
16116;DHT22;8162;47.104;15.432;2024-02-04T06:53:48;2.60;83.40
16116;DHT22;8162;47.104;15.432;2024-02-04T06:56:51;2.70;83.10
16116;DHT22;8162;47.104;15.432;2024-02-04T06:59:51;2.80;83.20
16116;DHT22;8162;47.104;15.432;2024-02-04T07:02:52;2.80;83.10
16116;DHT22;8162;47.104;15.432;2024-02-04T07:05:53;2.90;82.80
16116;DHT22;8162;47.104;15.432;2024-02-04T07:08:54;2.80;83.00
16116;DHT22;8162;47.104;15.432;2024-02-04T07:11:55;2.80;83.30
16116;DHT22;8162;47.104;15.432;2024-02-04T07:14:55;2.70;83.90
16116;DHT22;8162;47.104;15.432;2024-02-04T07:17:56;2.80;83.60
16116;DHT22;8162;47.104;15.432;2024-02-04T07:20:57;2.90;83.40
16116;DHT22;8162;47.104;15.432;2024-02-04T07:23:57;2.90;83.60
16116;DHT22;8162;47.104;15.432;2024-02-04T07:26:58;3.00;83.50
16116;DHT22;8162;47.104;15.432;2024-02-04T07:29:59;3.10;83.40
16116;DHT22;8162;47.104;15.432;2024-02-04T07:32:59;3.10;82.90
16116;DHT22;8162;47.104;15.432;2024-02-04T07:36:00;3.20;82.50
16116;DHT22;8162;47.104;15.432;2024-02-04T07:39:01;3.20;82.70
16116;DHT22;8162;47.104;15.432;2024-02-04T07:42:05;3.30;82.70
16116;DHT22;8162;47.104;15.432;2024-02-04T07:45:06;3.30;82.30
16116;DHT22;8162;47.104;15.432;2024-02-04T07:48:09;3.50;82.10
16116;DHT22;8162;47.104;15.432;2024-02-04T07:51:10;3.50;82.00
16116;DHT22;8162;47.104;15.432;2024-02-04T07:54:10;3.50;82.00
16116;DHT22;8162;47.104;15.432;2024-02-04T07:57:12;3.50;82.00
16116;DHT22;8162;47.104;15.432;2024-02-04T08:00:13;3.50;82.00
16116;DHT22;8162;47.104;15.432;2024-02-04T08:03:14;3.60;82.00
16116;DHT22;8162;47.104;15.432;2024-02-04T08:06:15;3.60;82.20
16116;DHT22;8162;47.104;15.432;2024-02-04T08:09:18;3.70;82.00
16116;DHT22;8162;47.104;15.432;2024-02-04T08:12:18;3.70;81.90
16116;DHT22;8162;47.104;15.432;2024-02-04T08:15:20;3.80;82.00
16116;DHT22;8162;47.104;15.432;2024-02-04T08:18:23;3.90;82.00
16116;DHT22;8162;47.104;15.432;2024-02-04T08:21:24;3.90;81.90
16116;DHT22;8162;47.104;15.432;2024-02-04T08:24:25;3.90;81.70
16116;DHT22;8162;47.104;15.432;2024-02-04T08:27:26;4.00;81.60
16116;DHT22;8162;47.104;15.432;2024-02-04T08:30:26;4.10;81.40
16116;DHT22;8162;47.104;15.432;2024-02-04T08:33:27;4.20;81.20
16116;DHT22;8162;47.104;15.432;2024-02-04T08:36:29;4.20;80.70
16116;DHT22;8162;47.104;15.432;2024-02-04T08:39:32;4.30;80.60
16116;DHT22;8162;47.104;15.432;2024-02-04T08:42:34;4.40;80.50
16116;DHT22;8162;47.104;15.432;2024-02-04T08:45:34;4.50;80.30
16116;DHT22;8162;47.104;15.432;2024-02-04T08:48:35;4.50;81.30
16116;DHT22;8162;47.104;15.432;2024-02-04T08:51:37;4.50;80.60
16116;DHT22;8162;47.104;15.432;2024-02-04T08:54:37;4.60;80.30
16116;DHT22;8162;47.104;15.432;2024-02-04T09:12:44;4.70;80.10
16116;DHT22;8162;47.104;15.432;2024-02-04T09:15:44;5.50;78.20
16116;DHT22;8162;47.104;15.432;2024-02-04T09:18:45;5.50;78.30
16116;DHT22;8162;47.104;15.432;2024-02-04T09:24:48;5.70;78.00
16116;DHT22;8162;47.104;15.432;2024-02-04T09:27:49;6.10;77.60
16116;DHT22;8162;47.104;15.432;2024-02-04T09:30:49;6.30;76.20
16116;DHT22;8162;47.104;15.432;2024-02-04T09:33:50;6.40;76.10
16116;DHT22;8162;47.104;15.432;2024-02-04T09:36:51;6.50;76.10
16116;DHT22;8162;47.104;15.432;2024-02-04T09:42:58;6.70;75.50
16116;DHT22;8162;47.104;15.432;2024-02-04T09:46:00;7.00;75.00
16116;DHT22;8162;47.104;15.432;2024-02-04T09:49:01;7.00;75.30
16116;DHT22;8162;47.104;15.432;2024-02-04T09:52:07;7.20;75.10
16116;DHT22;8162;47.104;15.432;2024-02-04T09:55:10;7.40;74.90
16116;DHT22;8162;47.104;15.432;2024-02-04T09:58:13;7.50;74.60
16116;DHT22;8162;47.104;15.432;2024-02-04T10:25:31;7.80;74.20
16116;DHT22;8162;47.104;15.432;2024-02-04T10:28:32;8.70;68.20
16116;DHT22;8162;47.104;15.432;2024-02-04T10:31:33;8.80;69.10
16116;DHT22;8162;47.104;15.432;2024-02-04T10:34:37;8.80;68.80
16116;DHT22;8162;47.104;15.432;2024-02-04T10:37:38;8.90;69.00
16116;DHT22;8162;47.104;15.432;2024-02-04T10:40:39;8.90;68.60
16116;DHT22;8162;47.104;15.432;2024-02-04T10:43:42;9.00;68.90
16116;DHT22;8162;47.104;15.432;2024-02-04T10:46:46;9.00;68.10
16116;DHT22;8162;47.104;15.432;2024-02-04T11:45:17;9.10;68.20
16116;DHT22;8162;47.104;15.432;2024-02-04T11:48:18;11.10;62.60
16116;DHT22;8162;47.104;15.432;2024-02-04T12:06:34;11.40;62.10
16116;DHT22;8162;47.104;15.432;2024-02-04T12:09:36;12.30;59.40
16116;DHT22;8162;47.104;15.432;2024-02-04T12:12:38;12.40;59.20
16116;DHT22;8162;47.104;15.432;2024-02-04T12:15:38;12.50;58.90
16116;DHT22;8162;47.104;15.432;2024-02-04T13:40:49;12.60;58.50
16116;DHT22;8162;47.104;15.432;2024-02-04T13:49:52;16.10;45.30
16116;DHT22;8162;47.104;15.432;2024-02-04T13:52:52;16.10;44.10
16116;DHT22;8162;47.104;15.432;2024-02-04T13:55:53;16.40;43.70
16116;DHT22;8162;47.104;15.432;2024-02-04T13:58:54;16.60;42.30
16116;DHT22;8162;47.104;15.432;2024-02-04T14:01:55;16.80;41.70
16116;DHT22;8162;47.104;15.432;2024-02-04T14:04:56;16.90;43.40
16116;DHT22;8162;47.104;15.432;2024-02-04T14:07:57;16.90;42.50
16116;DHT22;8162;47.104;15.432;2024-02-04T14:10:58;17.10;43.10
16116;DHT22;8162;47.104;15.432;2024-02-04T14:13:58;17.20;42.50
16116;DHT22;8162;47.104;15.432;2024-02-04T14:16:59;17.10;42.60
16116;DHT22;8162;47.104;15.432;2024-02-04T14:20:00;16.60;43.30
16116;DHT22;8162;47.104;15.432;2024-02-04T14:23:01;16.80;43.10
16116;DHT22;8162;47.104;15.432;2024-02-04T14:26:02;17.00;42.70
16116;DHT22;8162;47.104;15.432;2024-02-04T14:29:03;17.20;41.60
16116;DHT22;8162;47.104;15.432;2024-02-04T14:32:04;17.20;41.40
16116;DHT22;8162;47.104;15.432;2024-02-04T14:35:05;16.50;43.20
16116;DHT22;8162;47.104;15.432;2024-02-04T14:38:08;16.60;44.20
16116;DHT22;8162;47.104;15.432;2024-02-04T14:41:09;16.60;43.20
16116;DHT22;8162;47.104;15.432;2024-02-04T14:44:12;16.50;43.50
16116;DHT22;8162;47.104;15.432;2024-02-04T14:47:13;16.30;43.70
16116;DHT22;8162;47.104;15.432;2024-02-04T14:50:14;16.10;44.20
16116;DHT22;8162;47.104;15.432;2024-02-04T14:53:17;16.00;44.60
16116;DHT22;8162;47.104;15.432;2024-02-04T14:56:17;16.00;44.60
16116;DHT22;8162;47.104;15.432;2024-02-04T14:59:18;15.90;45.00
16116;DHT22;8162;47.104;15.432;2024-02-04T15:02:19;15.80;45.40
16116;DHT22;8162;47.104;15.432;2024-02-04T15:05:20;15.80;45.90
16116;DHT22;8162;47.104;15.432;2024-02-04T15:08:23;15.80;46.20
16116;DHT22;8162;47.104;15.432;2024-02-04T15:11:25;15.40;46.10
16116;DHT22;8162;47.104;15.432;2024-02-04T15:14:26;15.40;46.20
16116;DHT22;8162;47.104;15.432;2024-02-04T15:17:27;15.20;46.70
16116;DHT22;8162;47.104;15.432;2024-02-04T15:20:28;15.00;47.30
16116;DHT22;8162;47.104;15.432;2024-02-04T15:23:31;14.90;47.90
16116;DHT22;8162;47.104;15.432;2024-02-04T15:26:33;14.80;48.20
16116;DHT22;8162;47.104;15.432;2024-02-04T15:29:35;14.70;48.50
16116;DHT22;8162;47.104;15.432;2024-02-04T15:32:36;14.50;48.80
16116;DHT22;8162;47.104;15.432;2024-02-04T15:35:38;14.30;49.30
16116;DHT22;8162;47.104;15.432;2024-02-04T15:44:41;14.10;49.80
16116;DHT22;8162;47.104;15.432;2024-02-04T15:47:49;13.50;50.90
16116;DHT22;8162;47.104;15.432;2024-02-04T15:50:51;13.30;51.40
16116;DHT22;8162;47.104;15.432;2024-02-04T15:53:52;13.20;51.50
16116;DHT22;8162;47.104;15.432;2024-02-04T16:00:04;24.00;50.00
16116;DHT22;8162;47.104;15.432;2024-02-04T16:03:31;12.50;52.90
16116;DHT22;8162;47.104;15.432;2024-02-04T16:06:33;12.40;53.60
16116;DHT22;8162;47.104;15.432;2024-02-04T16:09:34;12.20;54.00
16116;DHT22;8162;47.104;15.432;2024-02-04T16:12:35;12.00;54.40
16116;DHT22;8162;47.104;15.432;2024-02-04T16:15:38;11.90;55.00
16116;DHT22;8162;47.104;15.432;2024-02-04T16:18:43;11.70;55.30
16116;DHT22;8162;47.104;15.432;2024-02-04T16:21:44;11.70;55.40
16116;DHT22;8162;47.104;15.432;2024-02-04T16:24:46;11.50;55.70
16116;DHT22;8162;47.104;15.432;2024-02-04T16:27:47;11.50;56.10
16116;DHT22;8162;47.104;15.432;2024-02-04T16:30:47;11.40;56.40
16116;DHT22;8162;47.104;15.432;2024-02-04T16:33:48;11.20;56.70
16116;DHT22;8162;47.104;15.432;2024-02-04T16:36:49;11.10;56.90
16116;DHT22;8162;47.104;15.432;2024-02-04T16:39:50;11.00;57.10
16116;DHT22;8162;47.104;15.432;2024-02-04T16:48:53;11.00;57.30
16116;DHT22;8162;47.104;15.432;2024-02-04T16:51:54;10.50;59.10
16116;DHT22;8162;47.104;15.432;2024-02-04T16:54:54;10.50;59.20
16116;DHT22;8162;47.104;15.432;2024-02-04T16:57:55;10.40;59.20
16116;DHT22;8162;47.104;15.432;2024-02-04T17:00:56;10.40;59.20
16116;DHT22;8162;47.104;15.432;2024-02-04T17:03:57;10.40;59.20
16116;DHT22;8162;47.104;15.432;2024-02-04T17:06:58;10.30;59.50
16116;DHT22;8162;47.104;15.432;2024-02-04T17:09:59;10.30;59.70
16116;DHT22;8162;47.104;15.432;2024-02-04T17:13:00;10.20;60.00
16116;DHT22;8162;47.104;15.432;2024-02-04T17:16:50;10.10;60.40
16116;DHT22;8162;47.104;15.432;2024-02-04T17:22:44;10.00;61.20
16116;DHT22;8162;47.104;15.432;2024-02-04T17:25:45;10.00;61.00
16116;DHT22;8162;47.104;15.432;2024-02-04T17:28:46;10.00;60.90
16116;DHT22;8162;47.104;15.432;2024-02-04T17:31:47;10.00;61.00
16116;DHT22;8162;47.104;15.432;2024-02-04T17:34:48;9.90;61.00
16116;DHT22;8162;47.104;15.432;2024-02-04T17:37:48;9.90;61.60
16116;DHT22;8162;47.104;15.432;2024-02-04T17:40:50;9.80;61.50
16116;DHT22;8162;47.104;15.432;2024-02-04T17:43:50;9.80;61.70
16116;DHT22;8162;47.104;15.432;2024-02-04T17:46:51;9.70;61.70
16116;DHT22;8162;47.104;15.432;2024-02-04T17:49:52;9.70;61.80
16116;DHT22;8162;47.104;15.432;2024-02-04T17:52:54;9.60;61.90
16116;DHT22;8162;47.104;15.432;2024-02-04T17:55:55;9.60;62.20
16116;DHT22;8162;47.104;15.432;2024-02-04T17:58:56;9.60;62.40
16116;DHT22;8162;47.104;15.432;2024-02-04T18:01:56;9.60;62.80
16116;DHT22;8162;47.104;15.432;2024-02-04T18:04:58;9.60;63.00
16116;DHT22;8162;47.104;15.432;2024-02-04T18:08:01;9.60;62.80
16116;DHT22;8162;47.104;15.432;2024-02-04T18:11:02;9.60;62.80
16116;DHT22;8162;47.104;15.432;2024-02-04T18:14:09;9.50;63.00
16116;DHT22;8162;47.104;15.432;2024-02-04T18:17:09;9.50;63.30
16116;DHT22;8162;47.104;15.432;2024-02-04T18:23:12;9.50;63.20
16116;DHT22;8162;47.104;15.432;2024-02-04T18:26:23;9.50;63.40
16116;DHT22;8162;47.104;15.432;2024-02-04T18:29:24;9.50;63.30
16116;DHT22;8162;47.104;15.432;2024-02-04T18:32:25;9.50;63.50
16116;DHT22;8162;47.104;15.432;2024-02-04T18:35:26;9.50;63.40
16116;DHT22;8162;47.104;15.432;2024-02-04T18:38:26;9.50;63.70
16116;DHT22;8162;47.104;15.432;2024-02-04T18:41:27;9.40;63.80
16116;DHT22;8162;47.104;15.432;2024-02-04T18:44:28;9.40;63.90
16116;DHT22;8162;47.104;15.432;2024-02-04T18:47:30;9.40;63.90
16116;DHT22;8162;47.104;15.432;2024-02-04T18:50:30;9.30;64.10
16116;DHT22;8162;47.104;15.432;2024-02-04T18:53:32;9.20;64.40
16116;DHT22;8162;47.104;15.432;2024-02-04T18:56:32;9.10;64.50
16116;DHT22;8162;47.104;15.432;2024-02-04T18:59:36;9.00;64.80
16116;DHT22;8162;47.104;15.432;2024-02-04T19:02:37;9.00;65.00
16116;DHT22;8162;47.104;15.432;2024-02-04T19:05:37;8.90;65.40
16116;DHT22;8162;47.104;15.432;2024-02-04T19:08:38;8.80;65.60
16116;DHT22;8162;47.104;15.432;2024-02-04T19:11:40;8.80;65.50
16116;DHT22;8162;47.104;15.432;2024-02-04T19:14:42;8.60;65.80
16116;DHT22;8162;47.104;15.432;2024-02-04T19:17:43;8.60;66.20
16116;DHT22;8162;47.104;15.432;2024-02-04T19:20:43;8.50;66.20
16116;DHT22;8162;47.104;15.432;2024-02-04T19:23:44;8.50;66.30
16116;DHT22;8162;47.104;15.432;2024-02-04T19:26:46;8.50;66.20
16116;DHT22;8162;47.104;15.432;2024-02-04T19:29:47;8.40;66.60
16116;DHT22;8162;47.104;15.432;2024-02-04T19:32:50;8.40;66.70
16116;DHT22;8162;47.104;15.432;2024-02-04T19:35:50;8.40;66.70
16116;DHT22;8162;47.104;15.432;2024-02-04T19:38:51;8.40;66.70
16116;DHT22;8162;47.104;15.432;2024-02-04T19:41:52;8.40;66.70
16116;DHT22;8162;47.104;15.432;2024-02-04T19:44:52;8.40;67.10
16116;DHT22;8162;47.104;15.432;2024-02-04T20:03:01;8.30;67.20
16116;DHT22;8162;47.104;15.432;2024-02-04T20:06:03;8.20;67.60
16116;DHT22;8162;47.104;15.432;2024-02-04T20:09:04;8.20;67.70
16116;DHT22;8162;47.104;15.432;2024-02-04T20:12:08;8.10;67.80
16116;DHT22;8162;47.104;15.432;2024-02-04T20:15:09;8.10;68.10
16116;DHT22;8162;47.104;15.432;2024-02-04T20:18:09;8.00;68.20
16116;DHT22;8162;47.104;15.432;2024-02-04T20:21:10;8.00;68.20
16116;DHT22;8162;47.104;15.432;2024-02-04T20:24:11;7.90;68.60
16116;DHT22;8162;47.104;15.432;2024-02-04T21:06:29;7.80;68.70
16116;DHT22;8162;47.104;15.432;2024-02-04T21:09:32;7.20;70.10
16116;DHT22;8162;47.104;15.432;2024-02-04T21:12:33;7.20;70.50
16116;DHT22;8162;47.104;15.432;2024-02-04T21:15:34;7.20;70.30
16116;DHT22;8162;47.104;15.432;2024-02-04T21:18:38;7.20;70.70
16116;DHT22;8162;47.104;15.432;2024-02-04T21:21:39;7.20;70.60
16116;DHT22;8162;47.104;15.432;2024-02-04T21:24:40;7.20;71.00
16116;DHT22;8162;47.104;15.432;2024-02-04T21:27:41;7.00;71.00
16116;DHT22;8162;47.104;15.432;2024-02-04T21:30:41;7.00;70.90
16116;DHT22;8162;47.104;15.432;2024-02-04T21:33:42;7.00;70.90
16116;DHT22;8162;47.104;15.432;2024-02-04T22:06:57;7.00;71.20
16116;DHT22;8162;47.104;15.432;2024-02-04T22:09:58;6.60;72.50
16116;DHT22;8162;47.104;15.432;2024-02-04T22:12:59;6.60;72.50
16116;DHT22;8162;47.104;15.432;2024-02-04T22:16:00;6.60;72.50
16116;DHT22;8162;47.104;15.432;2024-02-04T22:19:00;6.60;72.20
16116;DHT22;8162;47.104;15.432;2024-02-04T22:22:01;6.50;72.60
16116;DHT22;8162;47.104;15.432;2024-02-04T22:25:02;6.50;72.60
16116;DHT22;8162;47.104;15.432;2024-02-04T22:28:02;6.50;72.60
16116;DHT22;8162;47.104;15.432;2024-02-04T22:31:03;6.50;72.60
16116;DHT22;8162;47.104;15.432;2024-02-04T22:34:04;6.40;72.60
16116;DHT22;8162;47.104;15.432;2024-02-04T22:37:10;6.40;73.00
16116;DHT22;8162;47.104;15.432;2024-02-04T22:40:11;6.40;72.90
16116;DHT22;8162;47.104;15.432;2024-02-04T22:43:12;6.40;73.00
16116;DHT22;8162;47.104;15.432;2024-02-04T22:46:13;6.30;73.20
16116;DHT22;8162;47.104;15.432;2024-02-04T22:49:14;6.30;73.20
16116;DHT22;8162;47.104;15.432;2024-02-04T22:52:15;6.30;72.60
16116;DHT22;8162;47.104;15.432;2024-02-04T22:55:16;6.30;73.00
16116;DHT22;8162;47.104;15.432;2024-02-04T22:58:17;6.20;73.20
16116;DHT22;8162;47.104;15.432;2024-02-04T23:01:18;6.20;73.10
16116;DHT22;8162;47.104;15.432;2024-02-04T23:04:18;6.10;73.30
16116;DHT22;8162;47.104;15.432;2024-02-04T23:07:20;6.10;73.60
16116;DHT22;8162;47.104;15.432;2024-02-04T23:10:22;6.00;73.70
16116;DHT22;8162;47.104;15.432;2024-02-04T23:13:23;5.90;74.20
16116;DHT22;8162;47.104;15.432;2024-02-04T23:16:24;5.90;74.30
16116;DHT22;8162;47.104;15.432;2024-02-04T23:19:25;5.80;74.60
16116;DHT22;8162;47.104;15.432;2024-02-04T23:22:26;5.80;74.60
16116;DHT22;8162;47.104;15.432;2024-02-04T23:25:27;5.90;74.40
16116;DHT22;8162;47.104;15.432;2024-02-04T23:28:28;5.90;74.40
16116;DHT22;8162;47.104;15.432;2024-02-04T23:31:29;5.90;74.20
16116;DHT22;8162;47.104;15.432;2024-02-04T23:34:30;5.90;73.90
16116;DHT22;8162;47.104;15.432;2024-02-04T23:37:31;5.80;73.80
16116;DHT22;8162;47.104;15.432;2024-02-04T23:40:34;5.80;74.50
16116;DHT22;8162;47.104;15.432;2024-02-04T23:43:34;5.80;74.80
16116;DHT22;8162;47.104;15.432;2024-02-04T23:46:35;5.80;74.20
16116;DHT22;8162;47.104;15.432;2024-02-04T23:49:36;5.90;74.60
16116;DHT22;8162;47.104;15.432;2024-02-04T23:52:36;5.80;74.40
16116;DHT22;8162;47.104;15.432;2024-02-04T23:55:37;5.80;74.20
16116;DHT22;8162;47.104;15.432;2024-02-04T23:58:38;5.70;74.40
